Hub


Voltar

 INFORMAÇÕES METEOROLÓGICAS

METAR FOR SBTA


ADDS - METARS form results

(2023 UTC 17 January 2019)
Data provider http://aviationweather.gov/metar/data/
 
METAR text: SBTA 172000Z 15009KT 9999 VCSH SCT030 FEW035TCU 28/19 Q1013
Conditions at: SBTA (TAUBATE (BASE) , BR) observed 2000 UTC 17 January 2019
Temperature: 28.0°C (82°F)
Dewpoint: 19.0°C (66°F) [RH = 58%]
Pressure (altimeter): 29.91 inches Hg (1013.0 mb)
Winds: from the SSE (150 degrees) at 10 MPH (9 knots; 4.6 m/s)
Visibility: 6 or more miles (10+ km)
Ceiling: at least 12,000 feet AGL
Clouds: scattered clouds at 3000 feet AGL
few clouds at 3500 feet AGL
Weather: VCSH  (showers in vicinity)


 MAPA DO AEROPORTO


 INFORMAÇÕES DA PISTA

Pista 8 Tamanho da pista 112 ft Largura da pista 112 ft
Elevação da pista 0 ft Ranhura da pista 0 ft Proa da pista 0
Pista 26 Tamanho da pista 112 ft Largura da pista 112 ft
Elevação da pista 0 ft Ranhura da pista 0 ft Proa da pista 0

 FREQUÊNCIAS DO AEROPORTO

Tipo GND Nome GND Frequência 121.7 MHZ
Tipo TWR Nome TWR Frequência 119.9 MHZ

 AUXÍLIOS DE NAVEGAÇÃO PRÓXIMOS AO AEROPORTO

Tipo NDB Nome Taubate Frequência 430 KHZ